createdAt,value
2022-10-06T00:00:49.829Z,12.19
2022-10-06T00:03:16.884Z,12.15
2022-10-06T00:05:44.148Z,12.12
2022-10-06T00:08:11.525Z,12.12
2022-10-06T00:10:39.953Z,12.12
2022-10-06T00:13:07.125Z,12.10
2022-10-06T00:15:34.585Z,12.08
2022-10-06T00:18:01.362Z,12.05
2022-10-06T00:20:28.860Z,12.02
2022-10-06T00:22:57.010Z,12.02
2022-10-06T00:25:25.398Z,12.02
2022-10-06T00:27:52.798Z,12.03
2022-10-06T00:30:25.384Z,12.03
2022-10-06T00:32:53.556Z,11.99
2022-10-06T00:35:21.384Z,11.95
2022-10-06T00:37:48.456Z,11.93
2022-10-06T00:40:15.344Z,11.89
2022-10-06T00:43:28.025Z,11.83
2022-10-06T00:45:54.431Z,11.78
2022-10-06T00:48:24.653Z,11.75
2022-10-06T00:50:54.054Z,11.71
2022-10-06T00:53:22.088Z,11.67
2022-10-06T00:55:49.732Z,11.63
2022-10-06T00:58:17.592Z,11.59
2022-10-06T01:00:45.166Z,11.56
2022-10-06T01:03:37.011Z,11.52
2022-10-06T01:06:05.011Z,11.48
2022-10-06T01:08:32.919Z,11.45
2022-10-06T01:10:59.432Z,11.43
2022-10-06T01:13:27.327Z,11.44
2022-10-06T01:16:02.138Z,11.41
2022-10-06T01:18:31.013Z,11.37
2022-10-06T01:21:38.857Z,11.32
2022-10-06T01:24:05.667Z,11.31
2022-10-06T01:26:34.127Z,11.28
2022-10-06T01:29:00.892Z,11.24
2022-10-06T01:31:27.641Z,11.18
2022-10-06T01:33:55.532Z,11.16
2022-10-06T01:36:21.954Z,11.14
2022-10-06T01:38:48.519Z,11.11
2022-10-06T01:41:14.970Z,11.09
2022-10-06T01:43:41.409Z,11.07
2022-10-06T01:46:07.901Z,11.06
2022-10-06T01:48:35.984Z,11.02
2022-10-06T01:51:02.382Z,10.98
2022-10-06T01:53:29.812Z,10.94
2022-10-06T01:55:59.521Z,10.87
2022-10-06T01:58:26.657Z,10.84
2022-10-06T02:00:54.106Z,10.81
2022-10-06T02:03:20.490Z,10.76
2022-10-06T02:05:46.871Z,10.76
2022-10-06T02:08:13.351Z,10.72
2022-10-06T02:10:39.823Z,10.71
2022-10-06T02:13:06.197Z,10.70
2022-10-06T02:15:33.348Z,10.64
2022-10-06T02:17:59.953Z,10.61
2022-10-06T02:20:26.395Z,10.58
2022-10-06T02:22:52.718Z,10.58
2022-10-06T02:25:19.097Z,10.50
2022-10-06T02:27:45.606Z,10.48
2022-10-06T02:30:14.382Z,10.44
2022-10-06T02:32:42.676Z,10.40
2022-10-06T02:35:12.750Z,10.38
2022-10-06T02:37:41.463Z,10.34
2022-10-06T02:40:08.725Z,10.32
2022-10-06T02:42:37.226Z,10.29
2022-10-06T02:45:06.931Z,10.29
2022-10-06T02:47:34.753Z,10.28
2022-10-06T02:50:02.442Z,10.27
2022-10-06T02:52:38.210Z,10.20
2022-10-06T02:55:06.138Z,10.12
2022-10-06T02:57:32.535Z,10.11
2022-10-06T02:59:58.966Z,10.09
2022-10-06T03:02:25.520Z,10.08
2022-10-06T03:04:51.978Z,10.06
2022-10-06T03:07:18.737Z,10.06
2022-10-06T03:09:45.261Z,10.03
2022-10-06T03:12:12.352Z,9.98
2022-10-06T03:14:39.320Z,9.93
2022-10-06T03:17:05.702Z,9.90
2022-10-06T03:19:32.037Z,9.88
2022-10-06T03:21:58.514Z,9.86
2022-10-06T03:24:24.958Z,9.83
2022-10-06T03:26:51.489Z,9.81
2022-10-06T03:29:18.146Z,9.78
2022-10-06T03:31:44.715Z,9.74
2022-10-06T03:34:13.429Z,9.74
2022-10-06T03:36:39.827Z,9.72
2022-10-06T03:39:06.893Z,9.71
2022-10-06T03:41:38.022Z,9.70
2022-10-06T03:44:05.038Z,9.69
2022-10-06T03:46:35.083Z,9.65
2022-10-06T03:49:01.785Z,9.62
2022-10-06T03:51:31.353Z,9.59
2022-10-06T03:53:59.110Z,9.62
2022-10-06T03:56:29.687Z,9.57
2022-10-06T03:58:59.747Z,9.57
2022-10-06T04:01:26.808Z,9.52
2022-10-06T04:03:55.138Z,9.48
2022-10-06T04:06:21.791Z,9.45
2022-10-06T04:08:49.941Z,9.44
2022-10-06T04:11:20.433Z,9.41
2022-10-06T04:13:47.934Z,9.38
2022-10-06T04:16:18.380Z,9.38
2022-10-06T04:18:48.458Z,9.35
2022-10-06T04:21:15.436Z,9.32
2022-10-06T04:23:42.139Z,9.32
2022-10-06T04:26:12.753Z,9.31
2022-10-06T04:28:40.703Z,9.31
2022-10-06T04:31:17.091Z,9.32
2022-10-06T04:33:45.701Z,9.28
2022-10-06T04:36:15.105Z,9.26
2022-10-06T04:38:41.773Z,9.27
2022-10-06T04:41:16.113Z,9.23
2022-10-06T04:43:44.531Z,9.24
2022-10-06T04:46:37.615Z,9.22
2022-10-06T04:48:58.158Z,9.20
2022-10-06T04:51:26.894Z,9.20
2022-10-06T04:53:53.668Z,9.21
2022-10-06T04:56:29.266Z,9.17
2022-10-06T04:58:56.838Z,9.17
2022-10-06T05:01:27.975Z,9.19
2022-10-06T05:03:56.389Z,9.13
2022-10-06T05:06:43.074Z,9.11
2022-10-06T05:09:12.703Z,9.09
2022-10-06T05:11:39.335Z,9.08
2022-10-06T05:14:05.966Z,9.02
2022-10-06T05:16:32.829Z,9.03
2022-10-06T05:18:59.545Z,9.02
2022-10-06T05:21:31.094Z,9.00
2022-10-06T05:23:57.869Z,8.96
2022-10-06T05:26:27.756Z,8.92
2022-10-06T05:28:55.101Z,8.89
2022-10-06T05:31:24.402Z,8.84
2022-10-06T05:33:50.776Z,8.81
2022-10-06T05:36:19.998Z,8.79
2022-10-06T05:38:47.351Z,8.79
2022-10-06T05:41:15.208Z,8.76
2022-10-06T05:43:42.280Z,8.75
2022-10-06T05:46:20.229Z,8.73
2022-10-06T05:48:51.911Z,8.72
2022-10-06T05:51:21.073Z,8.73
2022-10-06T05:53:51.884Z,8.76
2022-10-06T05:56:33.803Z,8.74
2022-10-06T05:59:00.805Z,8.71
2022-10-06T06:01:29.806Z,8.69
2022-10-06T06:04:00.211Z,8.67
2022-10-06T06:06:42.730Z,8.68
2022-10-06T06:09:13.584Z,8.66
2022-10-06T06:11:43.058Z,8.69
2022-10-06T06:14:11.761Z,8.71
2022-10-06T06:16:39.755Z,8.74
2022-10-06T06:19:08.617Z,8.77
2022-10-06T06:21:35.644Z,8.81
2022-10-06T06:24:03.046Z,8.83
2022-10-06T06:26:31.929Z,8.86
2022-10-06T06:29:02.652Z,8.91
2022-10-06T06:31:31.296Z,8.95
2022-10-06T06:33:59.385Z,8.98
2022-10-06T06:36:25.741Z,9.04
2022-10-06T06:38:57.102Z,9.11
2022-10-06T06:41:26.590Z,9.16
2022-10-06T06:43:53.568Z,9.25
2022-10-06T06:46:24.892Z,9.33
2022-10-06T06:48:53.265Z,9.41
2022-10-06T06:51:24.033Z,9.48
2022-10-06T06:53:51.472Z,9.57
2022-10-06T06:56:18.382Z,9.65
2022-10-06T06:58:47.553Z,9.75
2022-10-06T07:01:17.067Z,9.81
2022-10-06T07:04:03.389Z,9.92
2022-10-06T07:06:31.150Z,9.99
2022-10-06T07:08:59.451Z,10.07
2022-10-06T07:11:31.122Z,10.14
2022-10-06T07:14:01.209Z,10.22
2022-10-06T07:17:04.721Z,10.29
2022-10-06T07:19:42.917Z,10.39
2022-10-06T07:22:28.924Z,10.44
2022-10-06T07:25:12.890Z,10.54
2022-10-06T07:27:45.142Z,10.64
2022-10-06T07:30:18.762Z,10.70
2022-10-06T07:32:46.613Z,10.76
2022-10-06T07:35:13.132Z,10.85
2022-10-06T07:37:40.558Z,10.91
2022-10-06T07:40:08.031Z,10.99
2022-10-06T07:42:53.644Z,11.06
2022-10-06T07:45:45.071Z,11.12
2022-10-06T07:48:18.092Z,11.20
2022-10-06T07:50:50.086Z,11.27
2022-10-06T07:53:18.509Z,11.35
2022-10-06T07:55:47.688Z,11.41
2022-10-06T07:58:18.763Z,11.48
2022-10-06T08:00:46.731Z,11.55
2022-10-06T08:03:17.858Z,11.61
2022-10-06T08:05:45.860Z,11.71
2022-10-06T08:08:12.442Z,11.77
2022-10-06T08:10:38.833Z,11.89
2022-10-06T08:13:06.670Z,11.98
2022-10-06T08:15:33.961Z,12.04
2022-10-06T08:18:01.445Z,12.12
2022-10-06T08:20:27.926Z,12.22
2022-10-06T08:22:54.513Z,12.33
2022-10-06T08:25:20.918Z,12.41
2022-10-06T08:27:53.292Z,12.48
2022-10-06T08:30:20.263Z,12.57
2022-10-06T08:32:47.427Z,12.65
2022-10-06T08:35:14.169Z,12.70
2022-10-06T08:37:42.143Z,12.78
2022-10-06T08:40:14.321Z,12.85
2022-10-06T08:42:43.190Z,12.90
2022-10-06T08:45:16.855Z,12.97
2022-10-06T08:47:55.386Z,13.02
2022-10-06T08:50:26.119Z,13.12
2022-10-06T08:53:05.954Z,13.19
2022-10-06T08:55:53.341Z,13.26
2022-10-06T08:58:53.515Z,13.33
2022-10-06T09:01:43.297Z,13.44
2022-10-06T09:04:13.898Z,13.52
2022-10-06T09:06:51.116Z,13.65
2022-10-06T09:09:29.454Z,13.72
2022-10-06T09:12:06.664Z,13.76
2022-10-06T09:14:48.051Z,13.81
2022-10-06T09:17:27.318Z,13.90
2022-10-06T09:20:00.005Z,13.95
2022-10-06T09:22:30.679Z,14.05
2022-10-06T09:24:59.272Z,14.08
2022-10-06T09:27:33.736Z,14.18
2022-10-06T09:30:01.679Z,14.25
2022-10-06T09:32:30.652Z,14.33
2022-10-06T09:35:02.530Z,14.37
2022-10-06T09:37:29.106Z,14.47
2022-10-06T09:39:55.732Z,14.56
2022-10-06T09:42:25.789Z,14.62
2022-10-06T09:45:06.610Z,14.72
2022-10-06T09:47:46.463Z,14.80
2022-10-06T09:50:14.184Z,14.88
2022-10-06T09:52:42.152Z,14.73
2022-10-06T09:55:17.804Z,14.81
2022-10-06T09:57:50.118Z,14.71
2022-10-06T10:00:27.347Z,14.75
2022-10-06T10:02:59.882Z,14.80
2022-10-06T10:05:28.973Z,14.87
2022-10-06T10:08:30.637Z,14.96
2022-10-06T10:11:29.220Z,15.09
2022-10-06T10:14:00.260Z,15.13
2022-10-06T10:16:34.521Z,15.22
2022-10-06T10:19:04.099Z,15.25
2022-10-06T10:21:36.334Z,15.14
2022-10-06T10:24:06.143Z,15.23
2022-10-06T10:26:53.635Z,15.38
2022-10-06T10:29:42.290Z,15.29
2022-10-06T10:32:12.105Z,15.30
2022-10-06T10:35:04.748Z,15.23
2022-10-06T10:37:52.100Z,15.29
2022-10-06T10:40:31.421Z,15.51
2022-10-06T10:43:04.527Z,15.88
2022-10-06T10:45:35.793Z,16.25
2022-10-06T10:48:10.805Z,16.45
2022-10-06T10:50:51.631Z,16.44
2022-10-06T10:53:29.293Z,16.35
2022-10-06T10:55:56.827Z,16.28
2022-10-06T10:58:33.237Z,16.37
2022-10-06T11:01:14.222Z,16.57
2022-10-06T11:03:40.873Z,16.52
2022-10-06T11:06:17.890Z,16.47
2022-10-06T11:09:02.916Z,16.26
2022-10-06T11:11:51.896Z,15.93
2022-10-06T11:14:35.791Z,15.75
2022-10-06T11:17:23.935Z,15.64
2022-10-06T11:20:09.348Z,15.96
2022-10-06T11:22:52.473Z,16.24
2022-10-06T11:25:21.618Z,16.45
2022-10-06T11:27:54.401Z,16.56
2022-10-06T11:30:26.321Z,16.69
2022-10-06T11:33:17.534Z,16.89
2022-10-06T11:35:46.773Z,17.13
2022-10-06T11:38:28.544Z,17.16
2022-10-06T11:41:21.126Z,17.07
2022-10-06T11:44:04.364Z,17.20
2022-10-06T11:46:42.604Z,17.32
2022-10-06T11:49:28.743Z,17.45
2022-10-06T11:52:15.032Z,17.46
2022-10-06T11:54:44.600Z,17.56
2022-10-06T11:57:25.101Z,17.82
2022-10-06T12:00:09.435Z,17.88
2022-10-06T12:02:37.904Z,17.98
2022-10-06T12:05:55.792Z,18.07
2022-10-06T12:08:18.079Z,18.13
2022-10-06T12:10:50.148Z,18.11
2022-10-06T12:19:48.536Z,18.39
2022-10-06T12:22:30.907Z,18.55
2022-10-06T12:25:31.562Z,18.50
2022-10-06T12:28:19.683Z,18.39
2022-10-06T12:31:09.418Z,18.30
2022-10-06T12:33:41.745Z,18.30
2022-10-06T12:36:24.037Z,17.98
2022-10-06T12:39:21.558Z,17.81
2022-10-06T12:42:07.842Z,17.71
2022-10-06T12:44:45.543Z,17.44
2022-10-06T12:47:17.029Z,17.32
2022-10-06T12:49:58.494Z,17.51
2022-10-06T12:52:44.452Z,17.42
2022-10-06T12:55:43.657Z,17.48
2022-10-06T12:58:25.926Z,17.89
2022-10-06T13:00:53.131Z,18.05
2022-10-06T13:03:24.310Z,18.31
2022-10-06T13:05:54.634Z,18.46
2022-10-06T13:08:25.013Z,18.43
2022-10-06T13:10:51.990Z,18.48
2022-10-06T13:13:24.318Z,18.38
2022-10-06T13:15:55.790Z,18.32
2022-10-06T13:18:23.205Z,18.33
2022-10-06T13:20:54.951Z,18.26
2022-10-06T13:23:27.287Z,18.22
2022-10-06T13:26:04.483Z,18.32
2022-10-06T13:28:36.626Z,18.43
2022-10-06T13:31:27.075Z,18.47
2022-10-06T13:34:05.411Z,18.58
2022-10-06T13:36:35.451Z,18.92
2022-10-06T13:39:26.173Z,19.13
2022-10-06T13:42:00.380Z,19.27
2022-10-06T13:44:55.127Z,19.60
2022-10-06T13:47:24.442Z,19.56
2022-10-06T13:50:01.878Z,19.67
2022-10-06T13:52:35.138Z,19.92
2022-10-06T13:55:03.055Z,20.21
2022-10-06T13:57:35.465Z,20.63
2022-10-06T14:00:23.614Z,20.36
2022-10-06T14:02:55.815Z,20.02
2022-10-06T14:05:44.490Z,20.11
2022-10-06T14:08:10.852Z,20.40
2022-10-06T14:10:51.554Z,20.07
2022-10-06T14:13:22.909Z,20.22
2022-10-06T14:15:53.302Z,20.28
2022-10-06T14:18:24.753Z,20.46
2022-10-06T14:20:53.364Z,20.48
2022-10-06T14:23:47.387Z,20.29
2022-10-06T14:26:15.324Z,20.04
2022-10-06T14:28:47.446Z,19.92
2022-10-06T14:31:14.931Z,19.62
2022-10-06T14:33:41.690Z,19.29
2022-10-06T14:36:15.898Z,18.82
2022-10-06T14:38:42.413Z,18.41
2022-10-06T14:41:08.867Z,18.19
2022-10-06T14:43:35.190Z,17.91
2022-10-06T14:46:04.075Z,17.81
2022-10-06T14:48:32.878Z,17.68
2022-10-06T14:51:03.029Z,17.65
2022-10-06T14:53:30.305Z,17.57
2022-10-06T14:56:13.954Z,17.42
2022-10-06T14:58:44.854Z,17.32
2022-10-06T15:01:14.486Z,17.25
2022-10-06T15:03:43.506Z,17.16
2022-10-06T15:06:31.421Z,17.12
2022-10-06T15:08:58.858Z,17.09
2022-10-06T15:11:27.368Z,17.00
2022-10-06T15:13:59.037Z,16.92
2022-10-06T15:16:29.122Z,16.89
2022-10-06T15:18:58.175Z,16.80
2022-10-06T15:21:24.628Z,16.65
2022-10-06T15:24:00.275Z,16.60
2022-10-06T15:26:46.002Z,16.56
2022-10-06T15:29:13.310Z,16.53
2022-10-06T15:31:41.973Z,16.42
2022-10-06T15:34:11.034Z,16.39
2022-10-06T15:36:39.645Z,16.35
2022-10-06T15:39:08.943Z,16.31
2022-10-06T15:41:36.513Z,16.20
2022-10-06T15:44:04.448Z,16.11
2022-10-06T15:46:32.151Z,16.10
2022-10-06T15:49:01.581Z,16.07
2022-10-06T15:51:34.884Z,16.01
2022-10-06T15:54:01.264Z,15.98
2022-10-06T15:56:31.109Z,15.95
2022-10-06T15:58:58.480Z,15.92
2022-10-06T16:01:33.890Z,15.81
2022-10-06T16:04:11.021Z,15.72
2022-10-06T16:07:04.746Z,15.65
2022-10-06T16:09:35.440Z,15.56
2022-10-06T16:12:05.209Z,15.51
2022-10-06T16:14:32.546Z,15.41
2022-10-06T16:17:00.750Z,15.33
2022-10-06T16:19:28.846Z,15.26
2022-10-06T16:21:58.759Z,15.22
2022-10-06T16:24:26.169Z,15.12
2022-10-06T16:26:53.638Z,15.02
2022-10-06T16:29:21.256Z,14.93
2022-10-06T16:31:47.983Z,14.89
2022-10-06T16:34:14.982Z,14.85
2022-10-06T16:36:42.393Z,14.76
2022-10-06T16:39:20.727Z,14.69
2022-10-06T16:41:47.456Z,14.64
2022-10-06T16:44:13.833Z,14.59
2022-10-06T16:46:40.458Z,14.49
2022-10-06T16:49:08.490Z,14.41
2022-10-06T16:51:39.880Z,14.32
2022-10-06T16:54:12.041Z,14.26
2022-10-06T16:56:41.459Z,14.18
2022-10-06T16:59:12.691Z,14.08
2022-10-06T17:01:39.510Z,14.02
2022-10-06T17:04:14.807Z,13.97
2022-10-06T17:06:46.974Z,13.94
2022-10-06T17:09:15.993Z,13.88
2022-10-06T17:11:45.370Z,13.75
2022-10-06T17:14:12.321Z,13.65
2022-10-06T17:16:41.499Z,13.56
2022-10-06T17:19:11.226Z,13.42
2022-10-06T17:21:46.097Z,13.40
2022-10-06T17:24:13.254Z,13.31
2022-10-06T17:26:42.040Z,13.24
2022-10-06T17:29:13.653Z,13.17
2022-10-06T17:31:42.192Z,13.09
2022-10-06T17:34:12.306Z,13.01
2022-10-06T17:36:40.234Z,12.91
2022-10-06T17:39:08.057Z,12.78
2022-10-06T17:41:42.682Z,12.70
2022-10-06T17:44:13.402Z,12.58
2022-10-06T17:46:45.317Z,12.49
2022-10-06T17:49:14.871Z,12.40
2022-10-06T17:51:43.575Z,12.33
2022-10-06T17:54:16.012Z,12.26
2022-10-06T17:56:43.897Z,12.26
2022-10-06T17:59:16.297Z,12.19
2022-10-06T18:01:45.133Z,12.11
2022-10-06T18:04:15.989Z,12.02
2022-10-06T18:06:43.162Z,11.96
2022-10-06T18:09:11.172Z,11.92
2022-10-06T18:11:44.429Z,11.85
2022-10-06T18:14:15.484Z,11.73
2022-10-06T18:16:45.790Z,11.63
2022-10-06T18:19:17.844Z,11.59
2022-10-06T18:21:45.922Z,11.47
2022-10-06T18:24:18.277Z,11.33
2022-10-06T18:26:48.046Z,11.27
2022-10-06T18:29:20.121Z,11.24
2022-10-06T18:31:49.100Z,11.18
2022-10-06T18:36:10.904Z,11.15
2022-10-06T18:37:02.116Z,11.13
2022-10-06T18:39:31.223Z,11.09
2022-10-06T18:41:59.089Z,11.09
2022-10-06T18:44:44.112Z,11.08
2022-10-06T18:47:28.944Z,11.06
2022-10-06T18:49:55.343Z,11.01
2022-10-06T18:52:21.809Z,10.97
2022-10-06T18:54:49.101Z,10.95
2022-10-06T18:57:15.597Z,10.90
2022-10-06T18:59:42.418Z,10.81
2022-10-06T19:02:08.899Z,10.74
2022-10-06T19:04:35.861Z,10.65
2022-10-06T19:07:02.640Z,10.50
2022-10-06T19:09:29.027Z,10.40
2022-10-06T19:11:56.564Z,10.38
2022-10-06T19:14:37.706Z,10.37
2022-10-06T19:17:09.006Z,10.33
2022-10-06T19:19:35.593Z,10.24
2022-10-06T19:22:04.406Z,10.11
2022-10-06T19:24:36.874Z,10.08
2022-10-06T19:27:12.099Z,10.04
2022-10-06T19:29:42.357Z,10.04
2022-10-06T19:32:09.090Z,10.00
2022-10-06T19:34:37.296Z,9.91
2022-10-06T19:37:04.889Z,9.87
2022-10-06T19:39:35.090Z,9.80
2022-10-06T19:42:20.050Z,9.78
2022-10-06T19:44:46.514Z,9.71
2022-10-06T19:47:14.694Z,9.72
2022-10-06T19:49:42.390Z,9.63
2022-10-06T19:52:10.547Z,9.56
2022-10-06T19:54:38.486Z,9.49
2022-10-06T19:57:06.217Z,9.45
2022-10-06T19:59:33.155Z,9.38
2022-10-06T20:01:59.507Z,9.33
2022-10-06T20:04:26.015Z,9.30
2022-10-06T20:06:52.541Z,9.30
2022-10-06T20:09:21.805Z,9.32
2022-10-06T20:11:50.420Z,9.26
2022-10-06T20:14:22.746Z,9.11
2022-10-06T20:16:51.405Z,9.09
2022-10-06T20:19:18.952Z,9.10
2022-10-06T20:21:45.969Z,9.08
2022-10-06T20:24:18.426Z,9.07
2022-10-06T20:26:46.258Z,9.03
2022-10-06T20:29:14.759Z,9.00
2022-10-06T20:31:45.001Z,8.95
2022-10-06T20:34:14.597Z,8.87
2022-10-06T20:36:41.324Z,8.74
2022-10-06T20:39:30.230Z,8.72
2022-10-06T20:41:56.566Z,8.71
2022-10-06T20:44:23.009Z,8.73
2022-10-06T20:46:49.383Z,8.76
2022-10-06T20:49:17.680Z,8.71
2022-10-06T20:51:47.168Z,8.72
2022-10-06T20:54:16.034Z,8.73
2022-10-06T20:56:42.844Z,8.71
2022-10-06T20:59:11.773Z,8.71
2022-10-06T21:01:41.978Z,8.67
2022-10-06T21:04:09.167Z,8.67
2022-10-06T21:06:40.027Z,8.68
2022-10-06T21:09:08.802Z,8.70
2022-10-06T21:11:35.305Z,8.67
2022-10-06T21:14:02.024Z,8.65
2022-10-06T21:16:33.947Z,8.67
2022-10-06T21:19:05.944Z,8.63
2022-10-06T21:21:32.325Z,8.65
2022-10-06T21:23:58.654Z,8.62
2022-10-06T21:26:28.440Z,8.56
2022-10-06T21:28:55.539Z,8.52
2022-10-06T21:31:27.065Z,8.45
2022-10-06T21:33:54.395Z,8.40
2022-10-06T21:36:29.068Z,8.32
2022-10-06T21:38:57.635Z,8.31
2022-10-06T21:41:28.942Z,8.34
2022-10-06T21:43:58.440Z,8.34
2022-10-06T21:46:30.902Z,8.31
2022-10-06T21:48:59.104Z,8.29
2022-10-06T21:51:27.682Z,8.30
2022-10-06T21:53:56.725Z,8.29
2022-10-06T21:56:23.677Z,8.24
2022-10-06T21:58:52.727Z,8.17
2022-10-06T22:01:21.417Z,8.16
2022-10-06T22:03:48.663Z,8.17
2022-10-06T22:06:19.346Z,8.09
2022-10-06T22:08:47.023Z,8.02
2022-10-06T22:11:18.172Z,7.96
2022-10-06T22:13:47.446Z,7.91
2022-10-06T22:16:16.556Z,7.87
2022-10-06T22:18:43.123Z,7.82
2022-10-06T22:21:18.493Z,7.81
2022-10-06T22:23:46.587Z,7.84
2022-10-06T22:26:14.350Z,7.81
2022-10-06T22:28:45.524Z,7.78
2022-10-06T22:31:12.131Z,7.78
2022-10-06T22:33:39.748Z,7.82
2022-10-06T22:36:10.560Z,7.87
2022-10-06T22:38:37.238Z,7.92
2022-10-06T22:41:06.883Z,7.95
2022-10-06T22:43:34.067Z,7.95
2022-10-06T22:46:00.840Z,7.97
2022-10-06T22:48:27.342Z,7.99
2022-10-06T22:50:53.916Z,8.02
2022-10-06T22:53:22.825Z,8.07
2022-10-06T22:55:49.827Z,8.10
2022-10-06T22:58:17.491Z,8.15
2022-10-06T23:00:44.544Z,8.18
2022-10-06T23:03:11.773Z,8.22
2022-10-06T23:05:38.872Z,8.26
2022-10-06T23:08:07.653Z,8.28
2022-10-06T23:10:35.459Z,8.31
2022-10-06T23:13:02.876Z,8.32
2022-10-06T23:15:29.442Z,8.34
2022-10-06T23:17:55.899Z,8.36
2022-10-06T23:20:22.460Z,8.38
2022-10-06T23:22:50.387Z,8.40
2022-10-06T23:25:16.769Z,8.41
2022-10-06T23:27:43.561Z,8.41
2022-10-06T23:30:10.350Z,8.43
2022-10-06T23:32:37.454Z,8.46
2022-10-06T23:35:04.418Z,8.47
2022-10-06T23:37:30.968Z,8.48
2022-10-06T23:39:57.576Z,8.49
2022-10-06T23:42:23.973Z,8.49
2022-10-06T23:44:50.309Z,8.53
2022-10-06T23:47:16.636Z,8.54
2022-10-06T23:49:43.578Z,8.56
2022-10-06T23:52:10.195Z,8.58
2022-10-06T23:54:36.540Z,8.61
2022-10-06T23:57:03.095Z,8.64
2022-10-06T23:59:29.525Z,8.65
